createdAt,value
2022-12-01T00:01:58.258Z,10.63
2022-12-01T00:05:00.329Z,9.98
2022-12-01T00:08:03.089Z,9.95
2022-12-01T00:11:06.137Z,9.70
2022-12-01T00:14:08.135Z,11.23
2022-12-01T00:17:10.089Z,9.75
2022-12-01T00:20:12.246Z,11.13
2022-12-01T00:23:14.252Z,10.40
2022-12-01T00:26:17.033Z,10.45
2022-12-01T00:29:19.021Z,11.98
2022-12-01T00:32:21.071Z,10.80
2022-12-01T00:35:23.063Z,10.15
2022-12-01T00:38:25.038Z,10.13
2022-12-01T00:41:27.052Z,7.43
2022-12-01T00:44:29.081Z,9.82
2022-12-01T00:47:31.687Z,8.95
2022-12-01T00:50:33.768Z,11.20
2022-12-01T00:53:35.809Z,11.73
2022-12-01T00:56:37.800Z,9.98
2022-12-01T00:59:39.894Z,9.88
2022-12-01T01:02:41.890Z,10.10
2022-12-01T01:05:44.100Z,10.80
2022-12-01T01:08:46.210Z,11.90
2022-12-01T01:11:48.511Z,11.23
2022-12-01T01:14:50.505Z,10.23
2022-12-01T01:17:52.842Z,9.40
2022-12-01T01:20:55.670Z,8.60
2022-12-01T01:23:57.677Z,10.00
2022-12-01T01:26:59.780Z,9.05
2022-12-01T01:30:01.800Z,11.00
2022-12-01T01:33:03.884Z,9.65
2022-12-01T01:36:06.068Z,9.38
2022-12-01T01:39:08.104Z,9.45
2022-12-01T01:42:12.923Z,9.17
2022-12-01T01:45:20.190Z,10.95
2022-12-01T01:48:22.189Z,9.32
2022-12-01T01:51:27.197Z,12.77
2022-12-01T01:54:31.712Z,10.23
2022-12-01T01:57:34.160Z,10.63
2022-12-01T02:00:37.157Z,11.18
2022-12-01T02:03:40.066Z,10.88
2022-12-01T02:06:42.075Z,10.15
2022-12-01T02:09:45.108Z,11.30
2022-12-01T02:13:06.251Z,10.33
2022-12-01T02:16:34.050Z,14.13
2022-12-01T02:19:39.086Z,10.85
2022-12-01T02:22:59.283Z,13.07
2022-12-01T02:26:20.145Z,13.60
2022-12-01T02:29:31.081Z,12.40
2022-12-01T02:32:44.985Z,11.35
2022-12-01T02:35:46.948Z,12.88
2022-12-01T02:38:58.289Z,10.52
2022-12-01T02:42:44.960Z,12.50
2022-12-01T02:45:49.863Z,11.63
2022-12-01T02:48:53.760Z,8.23
2022-12-01T02:51:57.302Z,12.85
2022-12-01T02:54:59.297Z,11.20
2022-12-01T02:58:01.369Z,7.50
2022-12-01T03:01:24.809Z,13.00
2022-12-01T03:04:45.528Z,13.55
2022-12-01T03:08:13.941Z,10.93
2022-12-01T03:11:27.190Z,11.73
2022-12-01T03:14:32.154Z,14.13
2022-12-01T03:17:40.244Z,11.63
2022-12-01T03:20:48.457Z,14.73
2022-12-01T03:23:53.079Z,13.13
2022-12-01T03:26:57.186Z,12.67
2022-12-01T03:30:01.312Z,14.10
2022-12-01T03:33:18.822Z,11.50
2022-12-01T03:36:25.597Z,14.05
2022-12-01T03:39:33.430Z,14.45
2022-12-01T03:42:38.815Z,12.38
2022-12-01T03:45:46.151Z,12.57
2022-12-01T03:48:48.253Z,10.80
2022-12-01T03:52:00.788Z,12.85
2022-12-01T03:55:24.679Z,11.23
2022-12-01T03:58:41.645Z,12.97
2022-12-01T04:01:45.164Z,12.18
2022-12-01T04:04:47.216Z,14.75
2022-12-01T04:07:49.292Z,15.43
2022-12-01T04:10:51.504Z,12.13
2022-12-01T04:13:53.473Z,14.15
2022-12-01T04:16:55.491Z,12.95
2022-12-01T04:19:57.649Z,12.87
2022-12-01T04:22:59.671Z,16.27
2022-12-01T04:26:02.652Z,13.45
2022-12-01T04:29:06.151Z,12.33
2022-12-01T04:32:08.188Z,14.25
2022-12-01T04:35:11.288Z,13.23
2022-12-01T04:38:13.363Z,12.50
2022-12-01T04:41:15.360Z,13.80
2022-12-01T04:44:17.375Z,12.23
2022-12-01T04:47:19.411Z,11.50
2022-12-01T04:50:21.388Z,10.07
2022-12-01T04:53:23.481Z,13.05
2022-12-01T04:56:25.631Z,11.50
2022-12-01T04:59:27.911Z,12.57
2022-12-01T05:02:29.933Z,13.68
2022-12-01T05:05:32.052Z,14.88
2022-12-01T05:08:34.404Z,15.05
2022-12-01T05:11:37.084Z,15.15
2022-12-01T05:14:39.225Z,16.85
2022-12-01T05:17:41.445Z,15.93
2022-12-01T05:20:58.777Z,13.73
2022-12-01T05:24:00.745Z,15.30
2022-12-01T05:27:02.767Z,12.82
2022-12-01T05:30:05.153Z,14.23
2022-12-01T05:33:07.201Z,13.07
2022-12-01T05:36:09.417Z,13.35
2022-12-01T05:39:11.408Z,12.38
2022-12-01T05:42:13.432Z,15.20
2022-12-01T05:45:15.485Z,13.93
2022-12-01T05:48:18.053Z,12.48
2022-12-01T05:51:20.227Z,11.47
2022-12-01T05:54:22.301Z,10.60
2022-12-01T05:57:24.281Z,13.55
2022-12-01T06:00:26.373Z,14.37
2022-12-01T06:03:28.408Z,13.93
2022-12-01T06:06:30.401Z,14.85
2022-12-01T06:09:32.445Z,14.30
2022-12-01T06:12:34.451Z,9.35
2022-12-01T06:15:36.823Z,19.88
2022-12-01T06:18:38.882Z,14.48
2022-12-01T06:21:40.941Z,14.83
2022-12-01T06:24:44.310Z,15.80
2022-12-01T06:27:47.363Z,9.55
2022-12-01T06:30:49.668Z,13.60
2022-12-01T06:33:51.744Z,13.13
2022-12-01T06:36:53.820Z,16.75
2022-12-01T06:39:55.887Z,13.93
2022-12-01T06:43:04.338Z,14.18
2022-12-01T06:46:06.759Z,11.55
2022-12-01T06:49:12.563Z,17.48
2022-12-01T06:52:14.634Z,11.67
2022-12-01T06:55:16.685Z,13.13
2022-12-01T06:58:18.897Z,14.05
2022-12-01T07:01:21.510Z,14.93
2022-12-01T07:04:23.767Z,12.82
2022-12-01T07:07:26.238Z,13.77
2022-12-01T07:10:28.524Z,11.43
2022-12-01T07:13:33.674Z,14.05
2022-12-01T07:16:36.251Z,11.20
2022-12-01T07:19:38.404Z,14.15
2022-12-01T07:22:40.454Z,11.73
2022-12-01T07:25:42.701Z,13.02
2022-12-01T07:28:45.283Z,14.18
2022-12-01T07:31:47.355Z,14.97
2022-12-01T07:34:49.471Z,14.93
2022-12-01T07:37:55.796Z,13.43
2022-12-01T07:41:08.159Z,13.13
2022-12-01T07:44:10.858Z,14.82
2022-12-01T07:47:13.069Z,14.82
2022-12-01T07:50:15.367Z,13.63
2022-12-01T07:53:17.658Z,13.20
2022-12-01T07:56:20.478Z,12.70
2022-12-01T07:59:22.642Z,9.93
2022-12-01T08:02:24.906Z,9.80
2022-12-01T08:05:27.028Z,9.30
2022-12-01T08:08:29.797Z,11.57
2022-12-01T08:11:32.015Z,11.70
2022-12-01T08:14:34.107Z,12.00
2022-12-01T08:17:36.229Z,12.48
2022-12-01T08:20:38.343Z,11.35
2022-12-01T08:23:42.729Z,10.63
2022-12-01T08:26:45.025Z,11.30
2022-12-01T08:29:47.209Z,11.07
2022-12-01T08:32:49.664Z,10.50
2022-12-01T08:35:51.900Z,12.15
2022-12-01T08:38:54.764Z,12.27
2022-12-01T08:41:56.932Z,12.48
2022-12-01T08:45:00.551Z,13.70
2022-12-01T08:48:03.104Z,10.60
2022-12-01T08:51:05.412Z,11.82
2022-12-01T08:54:07.446Z,11.70
2022-12-01T08:57:09.570Z,11.10
2022-12-01T09:00:12.493Z,11.43
2022-12-01T09:03:14.581Z,10.63
2022-12-01T09:06:17.945Z,11.68
2022-12-01T09:09:24.331Z,12.27
2022-12-01T09:12:28.506Z,10.70
2022-12-01T09:15:30.579Z,10.20
2022-12-01T09:18:32.707Z,10.83
2022-12-01T09:21:37.039Z,11.57
2022-12-01T09:24:39.093Z,10.18
2022-12-01T09:27:41.247Z,11.52
2022-12-01T09:30:44.039Z,10.35
2022-12-01T09:33:46.582Z,11.27
2022-12-01T09:36:48.886Z,9.32
2022-12-01T09:39:51.317Z,10.55
2022-12-01T09:42:53.746Z,11.25
2022-12-01T09:46:07.745Z,10.97
2022-12-01T09:49:23.098Z,10.93
2022-12-01T09:52:26.834Z,10.93
2022-12-01T09:55:30.442Z,11.13
2022-12-01T09:58:33.111Z,10.53
2022-12-01T10:01:38.908Z,9.93
2022-12-01T10:04:42.717Z,10.48
2022-12-01T10:07:47.511Z,10.57
2022-12-01T10:10:50.910Z,11.05
2022-12-01T10:13:52.972Z,11.87
2022-12-01T10:17:03.816Z,10.55
2022-12-01T10:20:08.693Z,10.73
2022-12-01T10:23:13.978Z,13.35
2022-12-01T10:26:28.465Z,10.90
2022-12-01T10:29:30.593Z,12.18
2022-12-01T10:32:32.938Z,13.52
2022-12-01T10:35:37.729Z,10.40
2022-12-01T10:38:40.301Z,10.73
2022-12-01T10:41:42.787Z,10.73
2022-12-01T10:44:45.333Z,11.00
2022-12-01T10:48:06.414Z,10.68
2022-12-01T10:51:15.814Z,13.37
2022-12-01T10:54:18.043Z,15.35
2022-12-01T10:57:20.097Z,14.18
2022-12-01T11:04:08.167Z,12.23
2022-12-01T11:07:15.009Z,12.83
2022-12-01T11:10:27.544Z,12.75
2022-12-01T11:13:31.356Z,11.65
2022-12-01T11:16:41.537Z,11.70
2022-12-01T11:19:43.915Z,11.93
2022-12-01T11:22:46.089Z,10.37
2022-12-01T11:25:59.454Z,9.48
2022-12-01T11:29:03.678Z,10.68
2022-12-01T11:32:25.750Z,10.95
2022-12-01T11:35:35.553Z,10.45
2022-12-01T11:38:37.639Z,9.67
2022-12-01T11:41:40.738Z,10.35
2022-12-01T11:44:55.047Z,10.65
2022-12-01T11:48:12.577Z,9.85
2022-12-01T11:51:14.625Z,9.95
2022-12-01T11:54:16.815Z,10.60
2022-12-01T11:57:33.765Z,10.05
2022-12-01T12:00:56.276Z,10.07
2022-12-01T12:04:04.170Z,10.32
2022-12-01T12:07:15.219Z,9.80
2022-12-01T12:10:35.800Z,10.13
2022-12-01T12:13:56.834Z,10.05
2022-12-01T12:17:16.307Z,9.98
2022-12-01T12:20:37.551Z,11.63
2022-12-01T12:23:51.748Z,10.93
2022-12-01T12:27:15.639Z,11.63
2022-12-01T12:30:20.598Z,12.90
2022-12-01T12:33:31.838Z,11.43
2022-12-01T12:36:47.149Z,10.27
2022-12-01T12:39:57.636Z,10.20
2022-12-01T12:43:18.785Z,8.67
2022-12-01T12:46:41.197Z,10.48
2022-12-01T12:49:45.969Z,10.15
2022-12-01T12:52:50.126Z,10.30
2022-12-01T12:55:54.180Z,9.85
2022-12-01T12:58:56.255Z,8.83
2022-12-01T13:02:01.157Z,8.77
2022-12-01T13:05:07.147Z,9.70
2022-12-01T13:08:47.873Z,9.80
2022-12-01T13:11:58.191Z,9.60
2022-12-01T13:15:18.336Z,14.57
2022-12-01T13:18:27.463Z,10.15
2022-12-01T13:21:32.447Z,10.20
2022-12-01T13:24:34.608Z,10.32
2022-12-01T13:27:38.565Z,10.10
2022-12-01T13:30:40.916Z,11.73
2022-12-01T13:33:54.322Z,10.52
2022-12-01T13:36:56.740Z,13.00
2022-12-01T13:40:10.010Z,12.75
2022-12-01T13:43:22.007Z,11.55
2022-12-01T13:46:44.404Z,11.90
2022-12-01T13:49:48.673Z,11.97
2022-12-01T13:52:51.288Z,17.42
2022-12-01T13:55:59.562Z,16.02
2022-12-01T13:59:02.119Z,19.00
2022-12-01T14:02:22.334Z,14.70
2022-12-01T14:05:39.797Z,17.27
2022-12-01T14:08:59.935Z,16.45
2022-12-01T14:12:13.847Z,21.90
2022-12-01T14:15:35.929Z,20.52
2022-12-01T14:18:40.625Z,26.95
2022-12-01T14:21:49.785Z,29.83
2022-12-01T14:24:53.016Z,33.30
2022-12-01T14:27:56.919Z,27.25
2022-12-01T14:31:01.941Z,62.83
2022-12-01T14:34:18.787Z,65.55
2022-12-01T14:37:24.314Z,39.95
2022-12-01T14:40:29.253Z,33.17
2022-12-01T14:43:49.996Z,44.00
2022-12-01T14:47:10.730Z,30.05
2022-12-01T14:50:19.818Z,25.15
2022-12-01T14:53:24.982Z,27.63
2022-12-01T14:56:27.576Z,28.10
2022-12-01T14:59:29.746Z,27.88
2022-12-01T15:02:32.350Z,27.98
2022-12-01T15:05:38.978Z,30.35
2022-12-01T15:08:45.738Z,29.48
2022-12-01T15:11:56.078Z,21.77
2022-12-01T15:14:58.201Z,22.03
2022-12-01T15:18:01.948Z,23.88
2022-12-01T15:21:19.669Z,21.73
2022-12-01T15:24:23.088Z,19.33
2022-12-01T15:27:26.646Z,17.35
2022-12-01T15:30:28.684Z,16.90
2022-12-01T15:33:36.994Z,17.05
2022-12-01T15:36:39.724Z,17.00
2022-12-01T15:39:46.275Z,17.83
2022-12-01T15:43:01.662Z,20.02
2022-12-01T15:46:19.017Z,17.33
2022-12-01T15:49:27.719Z,20.40
2022-12-01T15:52:29.890Z,23.30
2022-12-01T15:55:33.644Z,25.70
2022-12-01T15:58:40.662Z,24.90
2022-12-01T16:01:43.773Z,23.27
2022-12-01T16:04:46.480Z,22.35
2022-12-01T16:11:15.747Z,19.13
2022-12-01T16:14:23.106Z,19.60
2022-12-01T16:17:25.333Z,20.43
2022-12-01T16:20:35.666Z,20.65
2022-12-01T16:23:37.711Z,20.23
2022-12-01T16:26:46.722Z,20.30
2022-12-01T16:29:51.609Z,18.88
2022-12-01T16:33:00.988Z,18.45
2022-12-01T16:36:03.562Z,21.52
2022-12-01T16:39:07.900Z,18.17
2022-12-01T16:42:14.315Z,19.83
2022-12-01T16:45:17.671Z,17.65
2022-12-01T16:48:20.440Z,20.13
2022-12-01T16:51:29.995Z,20.90
2022-12-01T16:54:44.499Z,21.63
2022-12-01T16:57:46.474Z,19.87
2022-12-01T17:00:52.772Z,18.40
2022-12-01T17:03:54.901Z,20.23
2022-12-01T17:06:56.924Z,19.50
2022-12-01T17:09:59.165Z,22.75
2022-12-01T17:13:01.229Z,23.05
2022-12-01T17:16:04.637Z,24.83
2022-12-01T17:19:06.755Z,25.03
2022-12-01T17:22:08.779Z,26.02
2022-12-01T17:25:10.866Z,24.63
2022-12-01T17:28:12.863Z,24.33
2022-12-01T17:31:15.143Z,24.73
2022-12-01T17:34:17.237Z,23.15
2022-12-01T17:37:21.295Z,21.70
2022-12-01T17:40:23.488Z,23.70
2022-12-01T17:43:25.510Z,24.25
2022-12-01T17:46:27.604Z,21.85
2022-12-01T17:49:29.704Z,22.47
2022-12-01T17:52:31.752Z,23.63
2022-12-01T17:55:33.796Z,22.30
2022-12-01T17:58:36.181Z,25.63
2022-12-01T18:01:38.204Z,26.08
2022-12-01T18:04:40.318Z,28.00
2022-12-01T18:07:42.444Z,29.85
2022-12-01T18:10:44.556Z,21.35
2022-12-01T18:13:48.272Z,24.58
2022-12-01T18:16:50.325Z,30.15
2022-12-01T18:19:52.351Z,31.53
2022-12-01T18:22:54.311Z,32.78
2022-12-01T18:25:56.485Z,36.20
2022-12-01T18:28:59.556Z,34.13
2022-12-01T18:32:01.608Z,29.70
2022-12-01T18:35:03.667Z,27.55
2022-12-01T18:38:05.676Z,23.63
2022-12-01T18:41:07.763Z,22.10
2022-12-01T18:44:09.800Z,20.05
2022-12-01T18:47:11.875Z,21.77
2022-12-01T18:50:13.857Z,23.23
2022-12-01T18:53:15.941Z,21.80
2022-12-01T18:56:19.817Z,25.75
2022-12-01T18:59:22.045Z,29.60
2022-12-01T19:02:24.317Z,27.73
2022-12-01T19:05:26.651Z,26.63
2022-12-01T19:08:28.714Z,25.80
2022-12-01T19:11:30.832Z,34.80
2022-12-01T19:14:32.963Z,24.00
2022-12-01T19:17:35.156Z,17.77
2022-12-01T19:20:38.075Z,16.67
2022-12-01T19:23:40.371Z,17.05
2022-12-01T19:26:42.484Z,17.17
2022-12-01T19:29:44.520Z,19.07
2022-12-01T19:32:48.244Z,19.73
2022-12-01T19:35:50.265Z,20.52
2022-12-01T19:38:52.324Z,18.48
2022-12-01T19:41:56.248Z,19.98
2022-12-01T19:44:58.695Z,21.38
2022-12-01T19:48:00.717Z,22.15
2022-12-01T19:51:03.049Z,21.03
2022-12-01T19:54:06.055Z,21.80
2022-12-01T19:57:08.124Z,21.50
2022-12-01T20:00:10.437Z,22.93
2022-12-01T20:03:16.164Z,23.73
2022-12-01T20:06:19.645Z,21.88
2022-12-01T20:09:22.004Z,21.38
2022-12-01T20:12:23.967Z,22.77
2022-12-01T20:15:26.035Z,21.85
2022-12-01T20:18:28.004Z,21.52
2022-12-01T20:21:31.774Z,22.00
2022-12-01T20:24:33.730Z,21.55
2022-12-01T20:27:36.112Z,22.48
2022-12-01T20:30:39.726Z,21.27
2022-12-01T20:33:41.874Z,22.83
2022-12-01T20:36:44.344Z,21.85
2022-12-01T20:39:47.498Z,22.88
2022-12-01T20:42:49.490Z,19.48
2022-12-01T20:45:51.743Z,19.42
2022-12-01T20:48:53.760Z,20.05
2022-12-01T20:51:55.837Z,17.77
2022-12-01T20:54:57.878Z,19.10
2022-12-01T20:57:59.863Z,20.77
2022-12-01T21:01:06.608Z,20.37
2022-12-01T21:04:08.792Z,18.17
2022-12-01T21:07:10.873Z,16.55
2022-12-01T21:10:18.500Z,17.60
2022-12-01T21:13:42.045Z,17.52
2022-12-01T21:16:48.305Z,18.10
2022-12-01T21:19:56.529Z,16.65
2022-12-01T21:23:01.269Z,16.13
2022-12-01T21:26:08.838Z,17.23
2022-12-01T21:29:31.098Z,16.02
2022-12-01T21:32:34.188Z,18.50
2022-12-01T21:35:36.190Z,18.77
2022-12-01T21:38:38.201Z,21.80
2022-12-01T21:41:40.442Z,21.23
2022-12-01T21:44:42.788Z,21.83
2022-12-01T21:47:44.752Z,22.10
2022-12-01T21:50:50.949Z,23.25
2022-12-01T21:53:56.160Z,21.10
2022-12-01T21:56:58.670Z,22.80
2022-12-01T22:00:21.239Z,21.55
2022-12-01T22:03:26.169Z,21.27
2022-12-01T22:06:32.779Z,22.10
2022-12-01T22:09:35.492Z,22.15
2022-12-01T22:12:37.712Z,22.15
2022-12-01T22:15:41.336Z,25.80
2022-12-01T22:18:49.426Z,24.55
2022-12-01T22:22:00.798Z,19.52
2022-12-01T22:25:15.969Z,20.73
2022-12-01T22:28:23.411Z,18.45
2022-12-01T22:31:26.178Z,19.73
2022-12-01T22:34:28.332Z,19.43
2022-12-01T22:37:36.445Z,18.42
2022-12-01T22:40:44.205Z,18.30
2022-12-01T22:44:04.390Z,17.65
2022-12-01T22:47:09.099Z,18.95
2022-12-01T22:50:26.274Z,17.60
2022-12-01T22:53:29.864Z,18.83
2022-12-01T22:56:35.432Z,15.87
2022-12-01T22:59:38.566Z,18.48
2022-12-01T23:02:40.654Z,16.55
2022-12-01T23:05:42.810Z,15.70
2022-12-01T23:08:44.817Z,17.38
2022-12-01T23:11:52.360Z,16.48
2022-12-01T23:14:55.994Z,17.20
2022-12-01T23:18:19.058Z,15.25
2022-12-01T23:21:21.075Z,14.68
2022-12-01T23:24:23.106Z,14.18
2022-12-01T23:27:25.129Z,14.60
2022-12-01T23:30:27.182Z,15.95
2022-12-01T23:33:30.084Z,15.52
2022-12-01T23:36:32.055Z,15.10
2022-12-01T23:39:35.517Z,14.55
2022-12-01T23:42:37.533Z,15.02
2022-12-01T23:45:39.630Z,16.65
2022-12-01T23:48:43.596Z,16.73
2022-12-01T23:51:47.469Z,14.88
2022-12-01T23:54:49.896Z,15.95
2022-12-01T23:57:52.531Z,14.03
